createdAt,value
2023-01-25T00:01:33.840Z,1.28
2023-01-25T00:04:02.296Z,1.36
2023-01-25T00:06:30.579Z,1.32
2023-01-25T00:08:58.842Z,1.38
2023-01-25T00:11:27.174Z,1.45
2023-01-25T00:13:57.140Z,1.43
2023-01-25T00:16:25.499Z,1.42
2023-01-25T00:18:53.963Z,1.37
2023-01-25T00:21:24.810Z,1.24
2023-01-25T00:23:54.477Z,1.25
2023-01-25T00:26:23.005Z,1.22
2023-01-25T00:28:51.919Z,1.21
2023-01-25T00:31:33.302Z,1.29
2023-01-25T00:34:07.630Z,1.24
2023-01-25T00:36:42.348Z,1.29
2023-01-25T00:47:38.559Z,1.22
2023-01-25T00:50:09.123Z,1.19
2023-01-25T00:52:38.775Z,1.23
2023-01-25T00:55:08.843Z,1.25
2023-01-25T00:57:37.529Z,1.21
2023-01-25T01:00:07.238Z,1.15
2023-01-25T01:02:35.359Z,1.16
2023-01-25T01:05:05.471Z,1.12
2023-01-25T01:07:34.100Z,1.10
2023-01-25T01:10:02.280Z,1.10
2023-01-25T01:12:30.520Z,1.06
2023-01-25T01:14:59.105Z,1.05
2023-01-25T01:17:28.428Z,0.96
2023-01-25T01:19:56.554Z,1.12
2023-01-25T01:22:26.270Z,1.17
2023-01-25T01:24:56.968Z,1.07
2023-01-25T01:27:31.051Z,1.06
2023-01-25T01:30:20.180Z,1.11
2023-01-25T01:33:07.278Z,1.18
2023-01-25T01:36:44.057Z,1.05
2023-01-25T01:39:13.710Z,0.98
2023-01-25T01:41:41.956Z,0.98
2023-01-25T01:44:17.089Z,0.95
2023-01-25T01:46:52.609Z,0.89
2023-01-25T01:49:25.831Z,0.90
2023-01-25T01:52:01.204Z,0.92
2023-01-25T01:54:37.584Z,0.97
2023-01-25T01:57:11.966Z,0.85
2023-01-25T01:59:45.686Z,0.95
2023-01-25T02:02:15.184Z,0.94
2023-01-25T02:05:38.595Z,0.85
2023-01-25T02:08:13.864Z,1.02
2023-01-25T02:10:45.158Z,0.98
2023-01-25T02:17:05.097Z,0.93
2023-01-25T02:19:44.845Z,0.86
2023-01-25T02:22:17.324Z,0.86
2023-01-25T02:24:52.797Z,0.84
2023-01-25T02:31:36.948Z,0.91
2023-01-25T02:37:46.667Z,0.95
2023-01-25T02:40:14.900Z,0.96
2023-01-25T02:46:20.083Z,1.01
2023-01-25T02:48:48.428Z,0.96
2023-01-25T02:51:16.568Z,0.93
2023-01-25T02:53:44.829Z,0.96
2023-01-25T02:56:13.371Z,1.03
2023-01-25T02:58:41.699Z,0.96
2023-01-25T03:01:11.706Z,1.13
2023-01-25T03:03:43.815Z,0.99
2023-01-25T03:06:12.027Z,0.97
2023-01-25T03:08:41.574Z,0.90
2023-01-25T03:11:10.201Z,0.93
2023-01-25T03:13:39.643Z,0.88
2023-01-25T03:16:10.918Z,0.97
2023-01-25T03:18:43.889Z,0.90
2023-01-25T03:21:16.533Z,0.88
2023-01-25T03:23:46.198Z,0.85
2023-01-25T03:26:21.459Z,0.85
2023-01-25T03:29:08.517Z,0.91
2023-01-25T03:31:41.678Z,0.89
2023-01-25T03:34:11.719Z,0.85
2023-01-25T03:36:43.130Z,0.86
2023-01-25T03:39:11.489Z,0.92
2023-01-25T03:41:44.178Z,0.81
2023-01-25T03:44:15.482Z,0.83
2023-01-25T03:46:52.423Z,0.88
2023-01-25T03:49:23.367Z,0.80
2023-01-25T03:52:27.161Z,0.83
2023-01-25T03:54:57.610Z,0.84
2023-01-25T03:57:27.298Z,0.83
2023-01-25T04:00:01.677Z,0.89
2023-01-25T04:02:33.497Z,0.79
2023-01-25T04:08:46.553Z,0.76
2023-01-25T04:14:48.271Z,0.76
2023-01-25T04:17:31.820Z,0.75
2023-01-25T04:20:05.170Z,0.76
2023-01-25T04:22:38.377Z,0.70
2023-01-25T04:25:10.852Z,0.72
2023-01-25T04:27:47.599Z,0.73
2023-01-25T04:30:18.058Z,0.70
2023-01-25T04:33:10.300Z,0.80
2023-01-25T04:35:41.108Z,0.70
2023-01-25T04:38:11.459Z,0.66
2023-01-25T04:40:43.976Z,0.68
2023-01-25T04:43:15.410Z,0.64
2023-01-25T04:45:46.443Z,0.68
2023-01-25T04:48:22.633Z,0.73
2023-01-25T04:50:59.245Z,0.77
2023-01-25T04:53:28.539Z,0.71
2023-01-25T04:56:27.392Z,0.69
2023-01-25T04:59:16.891Z,0.62
2023-01-25T05:05:53.424Z,0.65
2023-01-25T05:08:27.059Z,0.59
2023-01-25T05:11:00.399Z,0.55
2023-01-25T05:13:37.495Z,0.72
2023-01-25T05:16:18.113Z,0.64
2023-01-25T05:18:49.313Z,0.63
2023-01-25T05:21:52.699Z,0.54
2023-01-25T05:24:22.505Z,0.60
2023-01-25T05:27:04.153Z,0.58
2023-01-25T05:29:51.565Z,0.53
2023-01-25T05:32:24.437Z,0.50
2023-01-25T05:34:53.857Z,0.49
2023-01-25T05:37:24.729Z,0.49
2023-01-25T05:40:04.351Z,0.57
2023-01-25T05:42:37.342Z,0.53
2023-01-25T05:45:10.803Z,0.54
2023-01-25T05:47:42.101Z,0.53
2023-01-25T05:50:12.064Z,0.55
2023-01-25T05:52:59.978Z,0.55
2023-01-25T05:55:31.450Z,0.57
2023-01-25T05:58:09.520Z,0.57
2023-01-25T06:00:40.072Z,0.57
2023-01-25T06:03:14.727Z,0.58
2023-01-25T06:05:43.889Z,0.58
2023-01-25T06:08:12.395Z,0.63
2023-01-25T06:10:52.202Z,0.58
2023-01-25T06:13:22.255Z,0.57
2023-01-25T06:15:54.637Z,0.53
2023-01-25T06:18:41.713Z,0.61
2023-01-25T06:21:15.957Z,0.57
2023-01-25T06:23:45.245Z,0.61
2023-01-25T06:26:16.785Z,0.49
2023-01-25T06:28:45.079Z,0.49
2023-01-25T06:31:15.299Z,0.45
2023-01-25T06:33:50.578Z,0.51
2023-01-25T06:36:22.698Z,0.53
2023-01-25T06:38:52.303Z,0.54
2023-01-25T06:41:22.870Z,0.50
2023-01-25T06:43:54.316Z,0.48
2023-01-25T06:46:23.164Z,0.41
2023-01-25T06:48:51.971Z,0.42
2023-01-25T06:51:20.527Z,0.46
2023-01-25T06:53:49.079Z,0.46
2023-01-25T06:56:21.633Z,0.53
2023-01-25T06:58:52.053Z,0.47
2023-01-25T07:01:27.665Z,0.48
2023-01-25T07:03:59.949Z,0.46
2023-01-25T07:06:33.345Z,0.48
2023-01-25T07:09:06.149Z,0.50
2023-01-25T07:11:34.790Z,0.51
2023-01-25T07:14:05.128Z,0.51
2023-01-25T07:16:39.305Z,0.53
2023-01-25T07:19:08.807Z,0.56
2023-01-25T07:21:37.664Z,0.63
2023-01-25T07:24:06.970Z,0.49
2023-01-25T07:26:35.410Z,0.51
2023-01-25T07:29:05.349Z,0.49
2023-01-25T07:31:34.143Z,0.55
2023-01-25T07:34:02.759Z,0.54
2023-01-25T07:36:32.957Z,0.55
2023-01-25T07:39:01.233Z,0.54
2023-01-25T07:41:29.442Z,0.53
2023-01-25T07:43:59.315Z,0.49
2023-01-25T07:46:37.542Z,0.51
2023-01-25T07:49:05.642Z,0.53
2023-01-25T07:51:34.062Z,0.55
2023-01-25T07:54:04.576Z,0.52
2023-01-25T07:56:34.660Z,0.67
2023-01-25T07:59:04.100Z,0.57
2023-01-25T08:01:34.535Z,0.60
2023-01-25T08:04:05.757Z,0.65
2023-01-25T08:06:38.869Z,0.64
2023-01-25T08:09:09.988Z,0.62
2023-01-25T08:11:38.602Z,0.54
2023-01-25T08:14:06.940Z,0.57
2023-01-25T08:16:36.061Z,0.65
2023-01-25T08:19:06.457Z,0.70
2023-01-25T08:21:35.998Z,0.72
2023-01-25T08:24:07.943Z,0.70
2023-01-25T08:26:37.528Z,0.72
2023-01-25T08:29:10.817Z,0.75
2023-01-25T08:31:41.812Z,0.70
2023-01-25T08:34:12.473Z,0.65
2023-01-25T08:36:43.659Z,0.68
2023-01-25T08:39:15.770Z,0.78
2023-01-25T08:41:45.591Z,0.83
2023-01-25T08:44:14.590Z,0.83
2023-01-25T08:46:45.266Z,0.93
2023-01-25T08:49:15.325Z,0.83
2023-01-25T08:51:44.979Z,0.83
2023-01-25T08:54:16.013Z,0.77
2023-01-25T08:56:45.490Z,0.85
2023-01-25T08:59:19.304Z,0.81
2023-01-25T09:01:47.556Z,0.85
2023-01-25T09:04:17.410Z,0.85
2023-01-25T09:06:46.257Z,0.76
2023-01-25T09:09:15.010Z,0.86
2023-01-25T09:11:43.622Z,0.88
2023-01-25T09:14:12.184Z,0.87
2023-01-25T09:16:40.690Z,0.92
2023-01-25T09:19:11.575Z,0.76
2023-01-25T09:21:41.692Z,0.94
2023-01-25T09:24:10.133Z,0.99
2023-01-25T09:26:44.227Z,0.95
2023-01-25T09:29:13.650Z,1.02
2023-01-25T09:31:43.973Z,0.95
2023-01-25T09:34:38.497Z,0.98
2023-01-25T09:37:10.839Z,0.97
2023-01-25T09:39:39.427Z,1.00
2023-01-25T09:42:37.791Z,0.94
2023-01-25T09:45:30.644Z,1.02
2023-01-25T09:48:05.814Z,1.07
2023-01-25T09:50:38.348Z,0.93
2023-01-25T09:53:24.845Z,0.90
2023-01-25T09:55:56.109Z,0.80
2023-01-25T09:58:32.017Z,0.88
2023-01-25T10:01:19.556Z,0.77
2023-01-25T10:03:56.421Z,0.90
2023-01-25T10:06:35.001Z,0.91
2023-01-25T10:09:13.264Z,0.95
2023-01-25T10:11:43.547Z,0.95
2023-01-25T10:14:16.236Z,1.00
2023-01-25T10:17:05.576Z,1.00
2023-01-25T10:19:53.698Z,0.98
2023-01-25T10:22:28.845Z,0.98
2023-01-25T10:25:20.533Z,1.07
2023-01-25T10:28:01.410Z,1.07
2023-01-25T10:30:49.632Z,1.23
2023-01-25T10:33:21.300Z,1.17
2023-01-25T10:35:51.428Z,1.27
2023-01-25T10:38:28.632Z,1.10
2023-01-25T10:41:03.101Z,1.24
2023-01-25T10:43:31.580Z,1.16
2023-01-25T10:46:00.169Z,1.18
2023-01-25T10:48:32.944Z,1.14
2023-01-25T10:51:01.429Z,1.08
2023-01-25T10:53:33.183Z,1.12
2023-01-25T10:56:19.327Z,1.20
2023-01-25T10:58:49.487Z,1.28
2023-01-25T11:01:34.819Z,1.29
2023-01-25T11:04:03.917Z,1.36
2023-01-25T11:06:35.812Z,1.41
2023-01-25T11:09:35.155Z,1.37
2023-01-25T11:12:16.972Z,1.28
2023-01-25T11:14:45.821Z,1.39
2023-01-25T11:17:30.484Z,1.29
2023-01-25T11:20:19.288Z,1.26
2023-01-25T11:22:53.461Z,1.22
2023-01-25T11:25:32.960Z,1.20
2023-01-25T11:28:18.380Z,1.28
2023-01-25T11:30:48.848Z,1.39
2023-01-25T11:33:19.772Z,1.34
2023-01-25T11:36:10.669Z,1.27
2023-01-25T11:38:47.792Z,1.34
2023-01-25T11:41:27.543Z,1.34
2023-01-25T11:44:19.749Z,1.37
2023-01-25T11:47:00.951Z,1.29
2023-01-25T11:49:40.042Z,1.37
2023-01-25T11:52:21.565Z,1.36
2023-01-25T11:54:59.605Z,1.42
2023-01-25T11:57:39.520Z,1.48
2023-01-25T12:00:25.136Z,1.51
2023-01-25T12:03:19.695Z,1.59
2023-01-25T12:05:58.106Z,1.47
2023-01-25T12:08:43.158Z,1.57
2023-01-25T12:11:22.125Z,1.55
2023-01-25T12:13:59.097Z,1.64
2023-01-25T12:16:44.788Z,1.60
2023-01-25T12:19:30.112Z,1.55
2023-01-25T12:22:35.562Z,1.41
2023-01-25T12:25:20.405Z,1.59
2023-01-25T12:28:04.359Z,1.41
2023-01-25T12:30:44.453Z,1.50
2023-01-25T12:33:19.727Z,1.60
2023-01-25T12:35:54.893Z,1.50
2023-01-25T12:38:29.315Z,1.48
2023-01-25T12:41:03.772Z,1.57
2023-01-25T12:43:38.202Z,1.48
2023-01-25T12:46:16.229Z,1.51
2023-01-25T12:48:49.805Z,1.59
2023-01-25T12:51:19.917Z,1.60
2023-01-25T12:53:51.849Z,1.51
2023-01-25T12:56:32.740Z,1.56
2023-01-25T12:59:09.200Z,1.58
2023-01-25T13:01:50.597Z,1.46
2023-01-25T13:04:29.822Z,1.46
2023-01-25T13:07:08.598Z,1.39
2023-01-25T13:09:45.580Z,1.45
2023-01-25T13:12:14.154Z,1.42
2023-01-25T13:14:43.707Z,1.53
2023-01-25T13:17:25.046Z,1.53
2023-01-25T13:19:56.594Z,1.56
2023-01-25T13:22:58.730Z,1.49
2023-01-25T13:25:27.805Z,1.61
2023-01-25T13:28:38.275Z,1.47
2023-01-25T13:31:07.973Z,1.45
2023-01-25T13:33:37.101Z,1.48
2023-01-25T13:36:45.508Z,1.56
2023-01-25T13:39:45.381Z,1.55
2023-01-25T13:42:22.005Z,1.52
2023-01-25T13:44:52.612Z,1.47
2023-01-25T13:47:25.099Z,1.40
2023-01-25T13:49:58.998Z,1.55
2023-01-25T13:52:31.629Z,1.58
2023-01-25T13:55:01.755Z,1.55
2023-01-25T13:57:33.020Z,1.45
2023-01-25T14:00:11.413Z,1.42
2023-01-25T14:02:46.947Z,1.40
2023-01-25T14:05:21.879Z,1.40
2023-01-25T14:07:57.555Z,1.48
2023-01-25T14:10:30.067Z,1.51
2023-01-25T14:13:01.451Z,1.53
2023-01-25T14:15:31.249Z,1.48
2023-01-25T14:18:19.227Z,1.57
2023-01-25T14:20:53.568Z,1.45
2023-01-25T14:23:26.807Z,1.37
2023-01-25T14:25:59.314Z,1.45
2023-01-25T14:28:29.631Z,1.37
2023-01-25T14:31:01.502Z,1.33
2023-01-25T14:33:36.079Z,1.24
2023-01-25T14:36:22.824Z,1.26
2023-01-25T14:38:53.759Z,1.40
2023-01-25T14:41:28.831Z,1.40
2023-01-25T14:44:00.538Z,1.35
2023-01-25T14:46:34.255Z,1.35
2023-01-25T14:49:28.066Z,1.27
2023-01-25T14:52:03.432Z,1.24
2023-01-25T14:54:34.235Z,1.35
2023-01-25T14:57:05.582Z,1.35
2023-01-25T14:59:38.316Z,1.32
2023-01-25T15:02:20.089Z,1.27
2023-01-25T15:04:57.198Z,1.16
2023-01-25T15:07:42.018Z,1.18
2023-01-25T15:10:19.967Z,1.20
2023-01-25T15:13:13.720Z,1.20
2023-01-25T15:16:12.883Z,1.17
2023-01-25T15:18:45.698Z,1.20
2023-01-25T15:21:16.472Z,1.17
2023-01-25T15:23:47.307Z,1.14
2023-01-25T15:26:21.023Z,1.13
2023-01-25T15:28:52.208Z,1.15
2023-01-25T15:31:23.377Z,1.07
2023-01-25T15:33:55.902Z,1.04
2023-01-25T15:36:24.561Z,1.04
2023-01-25T15:38:53.509Z,1.05
2023-01-25T15:41:22.391Z,1.04
2023-01-25T15:43:52.592Z,0.93
2023-01-25T15:46:23.681Z,0.93
2023-01-25T15:48:54.148Z,0.94
2023-01-25T15:51:24.318Z,0.90
2023-01-25T15:53:53.308Z,0.88
2023-01-25T15:56:23.155Z,0.86
2023-01-25T15:58:54.920Z,0.87
2023-01-25T16:01:27.016Z,0.92
2023-01-25T16:03:56.095Z,0.84
2023-01-25T16:06:35.564Z,0.84
2023-01-25T16:09:13.099Z,0.83
2023-01-25T16:11:41.753Z,0.76
2023-01-25T16:14:11.751Z,0.79
2023-01-25T16:16:42.782Z,0.81
2023-01-25T16:19:14.377Z,0.82
2023-01-25T16:21:43.299Z,0.85
2023-01-25T16:24:13.001Z,0.84
2023-01-25T16:26:44.618Z,0.83
2023-01-25T16:29:15.060Z,0.81
2023-01-25T16:31:45.027Z,0.76
2023-01-25T16:34:13.344Z,0.76
2023-01-25T16:36:41.975Z,0.76
2023-01-25T16:39:19.531Z,0.78
2023-01-25T16:41:51.094Z,0.77
2023-01-25T16:44:20.779Z,0.77
2023-01-25T16:46:50.676Z,0.79
2023-01-25T16:49:21.843Z,0.79
2023-01-25T16:51:50.878Z,0.79
2023-01-25T16:54:21.213Z,0.85
2023-01-25T16:56:53.168Z,0.93
2023-01-25T16:59:25.036Z,0.84
2023-01-25T17:01:56.673Z,0.86
2023-01-25T17:04:24.966Z,0.89
2023-01-25T17:06:54.285Z,0.95
2023-01-25T17:09:25.740Z,1.01
2023-01-25T17:11:57.058Z,1.05
2023-01-25T17:14:31.940Z,1.01
2023-01-25T17:17:00.872Z,0.88
2023-01-25T17:19:29.372Z,0.86
2023-01-25T17:21:59.218Z,0.90
2023-01-25T17:24:29.071Z,0.91
2023-01-25T17:26:58.439Z,1.00
2023-01-25T17:29:29.863Z,0.92
2023-01-25T17:31:59.112Z,0.91
2023-01-25T17:34:28.120Z,0.84
2023-01-25T17:36:57.082Z,0.86
2023-01-25T17:39:26.218Z,0.95
2023-01-25T17:41:54.871Z,0.86
2023-01-25T17:44:25.548Z,0.84
2023-01-25T17:46:55.548Z,0.83
2023-01-25T17:49:27.277Z,0.76
2023-01-25T17:51:55.659Z,0.78
2023-01-25T17:54:24.159Z,0.74
2023-01-25T17:56:54.177Z,0.73
2023-01-25T17:59:22.858Z,0.73
2023-01-25T18:01:51.805Z,0.77
2023-01-25T18:04:22.933Z,0.78
2023-01-25T18:06:51.670Z,0.72
2023-01-25T18:09:21.948Z,0.71
2023-01-25T18:11:50.738Z,0.77
2023-01-25T18:14:20.024Z,0.75
2023-01-25T18:16:48.707Z,0.66
2023-01-25T18:19:18.050Z,0.64
2023-01-25T18:21:47.786Z,0.67
2023-01-25T18:24:27.291Z,0.63
2023-01-25T18:27:00.077Z,0.66
2023-01-25T18:29:46.857Z,0.64
2023-01-25T18:32:16.625Z,0.57
2023-01-25T18:34:44.763Z,0.55
2023-01-25T18:37:21.881Z,0.68
2023-01-25T18:39:52.310Z,0.69
2023-01-25T18:42:22.052Z,0.56
2023-01-25T18:44:50.257Z,0.55
2023-01-25T18:47:20.602Z,0.51
2023-01-25T18:49:50.468Z,0.53
2023-01-25T18:52:25.667Z,0.52
2023-01-25T18:54:54.883Z,0.53
2023-01-25T18:57:23.210Z,0.53
2023-01-25T18:59:52.063Z,0.52
2023-01-25T19:02:20.899Z,0.52
2023-01-25T19:04:52.112Z,0.74
2023-01-25T19:07:20.375Z,0.71
2023-01-25T19:09:50.343Z,0.54
2023-01-25T19:12:18.823Z,0.52
2023-01-25T19:14:47.862Z,0.51
2023-01-25T19:17:17.178Z,0.47
2023-01-25T19:19:45.419Z,0.48
2023-01-25T19:22:14.283Z,0.47
2023-01-25T19:24:42.713Z,0.47
2023-01-25T19:27:12.482Z,0.48
2023-01-25T19:29:40.700Z,0.46
2023-01-25T19:32:11.144Z,0.46
2023-01-25T19:34:40.878Z,0.54
2023-01-25T19:37:09.086Z,0.51
2023-01-25T19:39:37.498Z,0.46
2023-01-25T19:42:06.786Z,0.46
2023-01-25T19:44:36.608Z,0.57
2023-01-25T19:47:07.734Z,0.48
2023-01-25T19:49:36.042Z,0.45
2023-01-25T19:52:05.582Z,0.40
2023-01-25T19:54:34.604Z,0.42
2023-01-25T19:57:05.767Z,0.41
2023-01-25T19:59:37.431Z,0.39
2023-01-25T20:02:06.328Z,0.39
2023-01-25T20:04:34.723Z,0.40
2023-01-25T20:07:02.960Z,0.40
2023-01-25T20:09:31.324Z,0.41
2023-01-25T20:12:00.650Z,0.40
2023-01-25T20:14:29.656Z,0.41
2023-01-25T20:17:00.845Z,0.42
2023-01-25T20:19:30.323Z,0.45
2023-01-25T20:22:00.554Z,0.47
2023-01-25T20:24:29.588Z,0.49
2023-01-25T20:26:59.963Z,0.41
2023-01-25T20:29:29.269Z,0.45
2023-01-25T20:31:59.033Z,0.42
2023-01-25T20:34:27.787Z,0.45
2023-01-25T20:36:56.740Z,0.41
2023-01-25T20:39:25.452Z,0.39
2023-01-25T20:41:56.790Z,0.36
2023-01-25T20:44:25.152Z,0.36
2023-01-25T20:46:55.743Z,0.35
2023-01-25T20:49:27.626Z,0.33
2023-01-25T20:51:57.110Z,0.38
2023-01-25T20:54:26.050Z,0.39
2023-01-25T20:56:54.875Z,0.33
2023-01-25T20:59:24.706Z,0.33
2023-01-25T21:01:53.543Z,0.30
2023-01-25T21:04:22.061Z,0.37
2023-01-25T21:06:52.873Z,0.29
2023-01-25T21:09:23.681Z,0.40
2023-01-25T21:11:52.398Z,0.34
2023-01-25T21:14:20.932Z,0.30
2023-01-25T21:16:49.533Z,0.32
2023-01-25T21:19:18.002Z,0.31
2023-01-25T21:21:46.575Z,0.36
2023-01-25T21:24:17.403Z,0.33
2023-01-25T21:26:46.189Z,0.33
2023-01-25T21:29:14.644Z,0.31
2023-01-25T21:31:43.726Z,0.30
2023-01-25T21:34:12.688Z,0.35
2023-01-25T21:36:41.008Z,0.27
2023-01-25T21:39:09.525Z,0.30
2023-01-25T21:41:40.234Z,0.35
2023-01-25T21:44:27.270Z,0.28
2023-01-25T21:47:27.786Z,0.29
2023-01-25T21:50:05.708Z,0.20
2023-01-25T21:52:36.331Z,0.25
2023-01-25T21:55:05.541Z,0.23
2023-01-25T21:57:36.552Z,0.21
2023-01-25T22:00:05.472Z,0.21
2023-01-25T22:02:34.218Z,0.26
2023-01-25T22:05:02.866Z,0.20
2023-01-25T22:07:33.705Z,0.20
2023-01-25T22:10:02.268Z,0.20
2023-01-25T22:12:30.745Z,0.19
2023-01-25T22:15:00.390Z,0.18
2023-01-25T22:17:29.450Z,0.17
2023-01-25T22:19:59.330Z,0.18
2023-01-25T22:22:27.780Z,0.13
2023-01-25T22:24:57.552Z,0.24
2023-01-25T22:27:37.628Z,0.13
2023-01-25T22:30:11.408Z,0.14
2023-01-25T22:32:40.054Z,0.16
2023-01-25T22:35:09.710Z,0.20
2023-01-25T22:37:38.858Z,0.21
2023-01-25T22:40:09.229Z,0.31
2023-01-25T22:42:38.975Z,0.12
2023-01-25T22:45:10.561Z,0.13
2023-01-25T22:47:38.866Z,0.11
2023-01-25T22:50:08.409Z,0.08
2023-01-25T22:52:38.085Z,0.11
2023-01-25T22:55:06.600Z,0.09
2023-01-25T22:57:39.219Z,0.09
2023-01-25T23:00:11.976Z,0.12
2023-01-25T23:02:40.595Z,0.09
2023-01-25T23:05:09.633Z,0.05
2023-01-25T23:07:37.951Z,0.09
2023-01-25T23:10:07.504Z,0.08
2023-01-25T23:12:35.727Z,0.11
2023-01-25T23:15:07.160Z,0.10
2023-01-25T23:17:54.281Z,0.15
2023-01-25T23:20:23.866Z,0.10
2023-01-25T23:22:52.505Z,0.09
2023-01-25T23:25:21.034Z,0.08
2023-01-25T23:27:49.728Z,0.09
2023-01-25T23:30:18.564Z,0.09
2023-01-25T23:32:49.832Z,0.09
2023-01-25T23:35:19.339Z,0.09
2023-01-25T23:37:48.555Z,0.10
2023-01-25T23:40:17.737Z,0.08
2023-01-25T23:42:46.231Z,0.09
2023-01-25T23:45:14.774Z,0.09
2023-01-25T23:47:43.432Z,0.11
2023-01-25T23:50:13.571Z,0.19
2023-01-25T23:52:42.492Z,0.08
2023-01-25T23:55:13.715Z,0.06
2023-01-25T23:57:41.879Z,0.03
